Time;durP1;ratioP1;P1;durP2;ratioP2;P2;SDS_P1;SDS_P2;PMS_P1;PMS_P2;Temp;Humidity;BMP_temperature;BMP_pressure;BME280_temperature;BME280_humidity;BME280_pressure;Samples;Min_cycle;Max_cycle;Signal;HPM_P1;HPM_P2
2020/12/21 00:01:38;;;;;;;13.80;2.87;;;7.10;99.90;;;;;;5074828;28;20193;-76
2020/12/21 00:04:04;;;;;;;11.43;3.30;;;7.10;99.90;;;;;;5077932;28;20219;-77
2020/12/21 00:06:31;;;;;;;13.50;3.10;;;7.10;99.90;;;;;;5077127;28;20224;-77
2020/12/21 00:08:58;;;;;;;11.17;2.50;;;7.10;99.90;;;;;;5077645;28;20291;-78
2020/12/21 00:11:32;;;;;;;9.60;2.73;;;7.00;99.90;;;;;;5076250;28;20204;-78
2020/12/21 00:13:58;;;;;;;15.77;3.10;;;7.00;99.90;;;;;;5075882;28;20201;-77
2020/12/21 00:16:25;;;;;;;13.70;3.30;;;7.00;99.90;;;;;;5087763;28;20287;-77
2020/12/21 00:18:51;;;;;;;12.43;3.03;;;7.10;99.90;;;;;;5090371;28;20287;-77
2020/12/21 00:21:17;;;;;;;11.03;2.90;;;7.00;99.90;;;;;;5087513;28;20208;-77
2020/12/21 00:23:45;;;;;;;11.67;2.83;;;7.10;99.90;;;;;;5091950;28;20192;-77
2020/12/21 00:26:11;;;;;;;12.90;3.20;;;7.20;99.90;;;;;;5089172;28;20316;-79
2020/12/21 00:28:37;;;;;;;8.13;2.70;;;7.10;99.90;;;;;;5087206;28;20231;-77
2020/12/21 00:31:04;;;;;;;9.00;2.63;;;7.10;99.90;;;;;;5090279;28;20199;-77
2020/12/21 00:33:31;;;;;;;17.67;3.27;;;7.10;99.90;;;;;;5089947;28;20207;-79
2020/12/21 00:35:58;;;;;;;14.10;2.90;;;7.10;99.90;;;;;;5090110;28;20255;-79
2020/12/21 00:38:24;;;;;;;10.00;2.70;;;7.10;99.90;;;;;;5092113;28;20196;-78
2020/12/21 00:40:51;;;;;;;8.50;2.33;;;7.10;99.90;;;;;;5092581;28;20658;-77
2020/12/21 00:43:17;;;;;;;11.63;2.80;;;7.10;99.90;;;;;;5090712;28;20705;-77
2020/12/21 00:45:44;;;;;;;9.70;2.33;;;7.00;99.90;;;;;;5086765;28;20648;-79
2020/12/21 00:48:10;;;;;;;14.90;3.53;;;7.00;99.90;;;;;;5091506;28;20249;-78
2020/12/21 00:50:36;;;;;;;11.13;2.83;;;7.10;99.90;;;;;;5087997;28;20293;-77
2020/12/21 00:53:03;;;;;;;9.47;2.67;;;7.00;99.90;;;;;;5091967;28;20196;-80
2020/12/21 00:55:29;;;;;;;7.83;2.40;;;7.10;99.90;;;;;;5088764;28;20227;-78
2020/12/21 00:57:56;;;;;;;11.77;2.80;;;7.10;99.90;;;;;;5086333;28;20199;-77
2020/12/21 01:00:23;;;;;;;7.43;2.50;;;7.20;99.90;;;;;;5087621;28;20201;-79
2020/12/21 01:02:49;;;;;;;11.80;2.43;;;7.10;99.90;;;;;;5086623;28;20262;-79
2020/12/21 01:05:16;;;;;;;11.37;2.30;;;7.20;99.90;;;;;;5089553;28;20196;-77
2020/12/21 01:07:42;;;;;;;13.80;2.63;;;7.10;99.90;;;;;;5091412;28;20712;-78
2020/12/21 01:10:08;;;;;;;9.27;2.80;;;7.10;99.90;;;;;;5090093;28;20230;-77
2020/12/21 01:12:35;;;;;;;12.13;3.07;;;7.10;99.90;;;;;;5088080;28;20295;-78
2020/12/21 01:15:03;;;;;;;16.50;3.20;;;7.10;99.90;;;;;;5091556;28;20210;-78
2020/12/21 01:17:32;;;;;;;10.23;3.30;;;7.30;99.90;;;;;;5088463;28;20210;-78
2020/12/21 01:19:58;;;;;;;14.13;3.70;;;7.20;99.90;;;;;;5093182;28;20250;-78
2020/12/21 01:22:25;;;;;;;15.70;4.20;;;7.30;99.90;;;;;;5100739;28;20202;-77
2020/12/21 01:24:51;;;;;;;15.20;3.97;;;7.20;99.90;;;;;;5087075;28;20240;-77
2020/12/21 01:27:17;;;;;;;11.73;3.97;;;7.30;99.90;;;;;;5090405;28;20693;-77
2020/12/21 01:29:43;;;;;;;14.60;4.60;;;7.30;99.90;;;;;;5086299;28;20670;-77
2020/12/21 01:32:11;;;;;;;13.73;4.03;;;7.30;99.90;;;;;;5089650;28;20657;-78
2020/12/21 01:34:37;;;;;;;11.80;3.33;;;7.30;99.90;;;;;;5091466;28;20634;-77
2020/12/21 01:37:04;;;;;;;16.17;3.80;;;7.30;99.90;;;;;;5089055;28;20287;-77
2020/12/21 01:39:30;;;;;;;13.93;4.50;;;7.30;99.90;;;;;;5088310;28;20203;-78
2020/12/21 01:41:56;;;;;;;9.63;3.70;;;7.30;99.90;;;;;;5089683;28;20212;-77
2020/12/21 01:44:23;;;;;;;14.60;4.33;;;7.20;99.90;;;;;;5087684;28;20283;-78
2020/12/21 01:46:49;;;;;;;11.63;3.60;;;7.20;99.90;;;;;;5087513;28;20224;-77
2020/12/21 01:49:17;;;;;;;13.57;3.90;;;7.30;99.90;;;;;;5091350;28;20222;-77
2020/12/21 01:51:43;;;;;;;13.30;3.73;;;7.30;99.90;;;;;;5088403;28;20204;-80
2020/12/21 01:54:11;;;;;;;11.03;3.97;;;7.30;99.90;;;;;;5091745;28;20344;-79
2020/12/21 01:56:37;;;;;;;15.60;4.17;;;7.30;99.90;;;;;;5086608;28;20618;-77
2020/12/21 01:59:03;;;;;;;20.40;4.30;;;7.30;99.90;;;;;;5088014;28;20656;-76
2020/12/21 02:01:32;;;;;;;15.77;4.57;;;7.30;99.90;;;;;;5089701;28;20197;-81
2020/12/21 02:03:58;;;;;;;15.10;4.53;;;7.30;99.90;;;;;;5091768;28;20665;-78
2020/12/21 02:06:26;;;;;;;14.10;3.90;;;7.30;99.90;;;;;;5089631;28;20699;-79
2020/12/21 02:08:53;;;;;;;13.07;3.57;;;7.30;99.90;;;;;;5087147;28;20203;-78
2020/12/21 02:11:19;;;;;;;20.00;4.20;;;7.30;99.90;;;;;;5090003;28;20240;-79
2020/12/21 02:13:46;;;;;;;15.03;3.60;;;7.30;99.90;;;;;;5086058;28;20200;-77
2020/12/21 02:16:15;;;;;;;12.07;3.53;;;7.20;99.90;;;;;;5088479;28;20298;-78
2020/12/21 02:18:41;;;;;;;16.23;3.37;;;7.30;99.90;;;;;;5093552;28;20232;-78
2020/12/21 02:21:08;;;;;;;14.17;3.67;;;7.30;99.90;;;;;;5085006;28;20202;-78
2020/12/21 02:23:35;;;;;;;11.63;2.97;;;7.20;99.90;;;;;;5092623;28;20204;-78
2020/12/21 02:26:01;;;;;;;9.43;3.00;;;7.40;99.90;;;;;;5085415;28;20568;-78
2020/12/21 02:28:27;;;;;;;21.30;3.63;;;7.30;99.90;;;;;;5089529;28;20196;-78
2020/12/21 02:30:54;;;;;;;8.37;2.60;;;7.30;99.90;;;;;;5090099;28;20221;-78
2020/12/21 02:33:20;;;;;;;11.37;2.80;;;7.30;99.90;;;;;;5085471;28;20196;-78
2020/12/21 02:35:46;;;;;;;7.23;2.33;;;7.30;99.90;;;;;;5091700;28;20199;-77
2020/12/21 02:38:14;;;;;;;8.17;2.23;;;7.30;99.90;;;;;;5087939;28;20303;-78
2020/12/21 02:40:41;;;;;;;11.20;2.70;;;7.30;99.90;;;;;;5091663;28;20197;-77
2020/12/21 02:43:07;;;;;;;8.30;2.60;;;7.40;99.90;;;;;;5082220;28;20214;-79
2020/12/21 02:45:34;;;;;;;9.90;2.67;;;7.40;99.90;;;;;;5086176;28;20591;-79
2020/12/21 02:48:00;;;;;;;11.27;2.70;;;7.50;99.90;;;;;;5090750;28;20258;-78
2020/12/21 02:50:26;;;;;;;9.07;2.53;;;7.40;99.90;;;;;;5091235;28;20283;-80
2020/12/21 02:52:53;;;;;;;8.60;2.17;;;7.30;99.90;;;;;;5085386;28;20337;-80
2020/12/21 02:55:20;;;;;;;8.70;2.37;;;7.30;99.90;;;;;;5086694;28;20210;-81
2020/12/21 02:57:48;;;;;;;9.77;2.27;;;7.30;99.90;;;;;;5094976;28;20290;-78
2020/12/21 03:00:14;;;;;;;8.77;2.30;;;7.20;99.90;;;;;;5095099;28;20199;-78
2020/12/21 03:02:40;;;;;;;7.93;2.13;;;7.20;99.90;;;;;;5089398;28;20197;-80
2020/12/21 03:05:07;;;;;;;11.00;2.57;;;7.20;99.90;;;;;;5083876;28;20206;-77
2020/12/21 03:07:34;;;;;;;6.53;2.00;;;7.20;99.90;;;;;;5088310;28;20585;-79
2020/12/21 03:10:00;;;;;;;10.33;2.10;;;7.30;99.90;;;;;;5089672;28;20674;-79
2020/12/21 03:12:27;;;;;;;9.80;2.10;;;7.30;99.90;;;;;;5094590;28;20249;-80
2020/12/21 03:14:54;;;;;;;10.57;1.80;;;7.20;99.90;;;;;;5092376;28;20295;-77
2020/12/21 03:17:20;;;;;;;9.77;2.27;;;7.20;99.90;;;;;;5091114;28;20239;-77
2020/12/21 03:19:46;;;;;;;12.10;2.40;;;7.30;99.90;;;;;;5084593;28;20287;-79
2020/12/21 03:22:13;;;;;;;9.33;2.10;;;7.30;99.90;;;;;;5083295;28;20730;-76
2020/12/21 03:24:39;;;;;;;7.70;1.57;;;7.40;99.90;;;;;;5094757;28;20203;-78
2020/12/21 03:27:06;;;;;;;9.20;1.80;;;7.50;99.90;;;;;;5094445;28;20237;-78
2020/12/21 03:29:33;;;;;;;9.07;2.33;;;7.60;99.90;;;;;;5087731;28;20287;-79
2020/12/21 03:31:59;;;;;;;6.83;1.80;;;7.60;99.90;;;;;;5087851;28;20288;-82
2020/12/21 03:34:26;;;;;;;10.47;1.97;;;7.70;99.90;;;;;;5091104;28;20290;-80
2020/12/21 03:36:52;;;;;;;11.97;2.20;;;7.70;99.90;;;;;;5085618;28;20238;-80
2020/12/21 03:39:18;;;;;;;6.87;1.77;;;7.70;99.90;;;;;;5081100;28;20189;-80
2020/12/21 03:41:44;;;;;;;10.50;2.27;;;7.70;99.90;;;;;;5094097;28;20206;-78
2020/12/21 03:44:11;;;;;;;6.40;1.83;;;7.70;99.90;;;;;;5090630;28;20200;-81
2020/12/21 03:46:38;;;;;;;11.37;2.10;;;7.70;99.90;;;;;;5083406;28;20259;-78
2020/12/21 03:49:04;;;;;;;8.60;2.73;;;7.80;99.90;;;;;;5086728;28;20544;-78
2020/12/21 03:51:31;;;;;;;10.17;2.10;;;7.70;99.90;;;;;;5093880;28;20199;-78
2020/12/21 03:53:57;;;;;;;7.50;1.87;;;7.70;99.90;;;;;;5095152;28;20204;-79
2020/12/21 03:56:23;;;;;;;8.10;1.87;;;7.80;99.90;;;;;;5088515;28;20205;-79
2020/12/21 03:58:50;;;;;;;9.33;2.03;;;7.80;99.90;;;;;;5081948;28;20340;-80
2020/12/21 04:01:16;;;;;;;11.63;1.93;;;7.80;99.90;;;;;;5088600;28;20216;-80
2020/12/21 04:03:43;;;;;;;7.07;1.80;;;7.90;99.90;;;;;;5087059;28;20231;-79
2020/12/21 04:06:10;;;;;;;9.17;1.73;;;7.90;99.90;;;;;;5091685;28;20227;-78
2020/12/21 04:08:36;;;;;;;13.03;2.10;;;7.90;99.90;;;;;;5092485;28;20378;-78
2020/12/21 04:11:03;;;;;;;8.90;1.90;;;7.90;99.90;;;;;;5093765;28;20235;-78
2020/12/21 04:13:29;;;;;;;6.80;1.93;;;7.90;99.90;;;;;;5094192;28;20284;-78
2020/12/21 04:15:55;;;;;;;10.33;1.83;;;7.90;99.90;;;;;;5093512;28;20297;-77
2020/12/21 04:18:23;;;;;;;6.93;2.17;;;7.90;99.90;;;;;;5093388;28;20295;-77
2020/12/21 04:20:50;;;;;;;10.03;2.00;;;8.00;99.90;;;;;;5094345;28;20574;-78
2020/12/21 04:23:16;;;;;;;5.33;1.77;;;7.90;99.90;;;;;;5093277;28;20204;-77
2020/12/21 04:25:43;;;;;;;10.57;1.80;;;8.00;99.90;;;;;;5092859;28;20208;-77
2020/12/21 04:28:09;;;;;;;12.47;1.80;;;7.90;99.90;;;;;;5092150;28;20303;-77
2020/12/21 04:30:35;;;;;;;6.03;2.20;;;8.00;99.90;;;;;;5092427;28;20284;-77
2020/12/21 04:33:02;;;;;;;10.93;2.20;;;8.00;99.90;;;;;;5090055;28;20278;-78
2020/12/21 04:35:28;;;;;;;8.20;2.00;;;8.00;99.90;;;;;;5077728;28;20291;-76
2020/12/21 04:37:55;;;;;;;9.77;2.13;;;8.00;99.90;;;;;;5081711;28;20228;-77
2020/12/21 04:40:22;;;;;;;7.93;1.80;;;8.00;99.90;;;;;;5081808;28;20284;-76
2020/12/21 04:42:49;;;;;;;9.43;2.00;;;8.00;99.90;;;;;;5085176;28;20306;-78
2020/12/21 04:45:16;;;;;;;6.80;2.13;;;7.90;99.90;;;;;;5090080;28;20654;-76
2020/12/21 04:47:43;;;;;;;9.53;2.70;;;8.00;99.90;;;;;;5093252;28;20275;-77
2020/12/21 04:50:12;;;;;;;8.17;2.20;;;8.10;99.90;;;;;;5084202;28;20204;-77
2020/12/21 04:52:47;;;;;;;9.10;1.87;;;8.10;99.90;;;;;;5092848;28;20211;-77
2020/12/21 04:55:16;;;;;;;8.90;2.30;;;8.10;99.90;;;;;;5082749;28;20245;-78
2020/12/21 04:57:56;;;;;;;10.53;2.37;;;8.00;99.90;;;;;;5091995;28;20684;-77
2020/12/21 05:00:23;;;;;;;6.50;1.80;;;8.00;99.90;;;;;;5081447;28;20206;-78
2020/12/21 05:02:49;;;;;;;6.73;2.40;;;8.00;99.90;;;;;;5081945;28;20208;-77
2020/12/21 05:05:30;;;;;;;13.13;2.90;;;8.00;99.90;;;;;;5090962;28;20193;-77
2020/12/21 05:07:56;;;;;;;7.57;2.47;;;8.10;99.90;;;;;;5093042;28;20315;-77
2020/12/21 05:10:24;;;;;;;11.27;2.87;;;8.00;99.90;;;;;;5092563;28;20584;-79
2020/12/21 05:13:01;;;;;;;8.53;2.47;;;8.10;99.90;;;;;;5092608;28;20204;-77
2020/12/21 05:15:27;;;;;;;12.50;2.90;;;8.00;99.90;;;;;;5091728;28;20200;-77
2020/12/21 05:18:07;;;;;;;13.03;2.67;;;8.10;99.90;;;;;;5092801;28;20720;-77
2020/12/21 05:20:38;;;;;;;9.90;2.67;;;8.00;99.90;;;;;;5082547;28;20446;-78
2020/12/21 05:23:06;;;;;;;7.90;2.87;;;8.10;99.90;;;;;;5083472;28;20202;-77
2020/12/21 05:25:33;;;;;;;18.83;3.03;;;8.10;99.90;;;;;;5090885;28;20589;-78
2020/12/21 05:28:10;;;;;;;8.43;2.90;;;8.10;99.90;;;;;;5091399;28;20274;-77
2020/12/21 05:30:37;;;;;;;8.60;2.90;;;8.20;99.90;;;;;;5081741;28;20236;-77
2020/12/21 05:33:04;;;;;;;9.67;3.20;;;8.30;99.90;;;;;;5082326;28;20195;-79
2020/12/21 05:35:30;;;;;;;8.70;2.77;;;8.40;99.90;;;;;;5092259;28;20203;-77
2020/12/21 05:37:57;;;;;;;9.83;3.50;;;8.40;99.90;;;;;;5085087;28;20678;-76
2020/12/21 05:40:26;;;;;;;11.23;3.70;;;8.40;99.90;;;;;;5086849;28;20241;-78
2020/12/21 05:42:54;;;;;;;9.90;2.97;;;8.50;99.90;;;;;;5092862;28;20213;-77
2020/12/21 05:45:20;;;;;;;8.50;3.27;;;8.50;99.90;;;;;;5089810;28;20765;-77
2020/12/21 05:47:49;;;;;;;10.87;3.27;;;8.50;99.90;;;;;;5087185;28;20280;-77
2020/12/21 05:50:21;;;;;;;10.40;2.93;;;8.50;99.90;;;;;;5083195;28;20649;-77
2020/12/21 05:52:53;;;;;;;7.80;3.30;;;8.50;99.90;;;;;;5091720;28;20282;-78
2020/12/21 05:55:21;;;;;;;9.77;3.80;;;8.50;99.90;;;;;;5085011;28;20201;-77
2020/12/21 05:57:50;;;;;;;16.17;3.77;;;8.60;99.90;;;;;;5082466;28;20562;-78
2020/12/21 06:00:17;;;;;;;12.93;3.50;;;8.50;99.90;;;;;;5091990;28;20204;-79
2020/12/21 06:02:43;;;;;;;12.03;3.10;;;8.60;99.90;;;;;;5092349;28;20195;-77
2020/12/21 06:05:11;;;;;;;12.27;3.80;;;8.50;99.90;;;;;;5077033;28;20722;-79
2020/12/21 06:07:39;;;;;;;9.40;3.37;;;8.50;99.90;;;;;;5087998;28;20562;-78
2020/12/21 06:10:08;;;;;;;8.13;3.13;;;8.70;99.90;;;;;;5091710;28;20207;-77
2020/12/21 06:12:44;;;;;;;12.67;3.33;;;8.80;99.90;;;;;;5089968;28;20204;-80
2020/12/21 06:15:13;;;;;;;8.20;3.17;;;8.70;99.90;;;;;;5091647;28;20199;-77
2020/12/21 06:17:40;;;;;;;6.17;2.90;;;8.70;99.90;;;;;;5091686;28;20212;-77
2020/12/21 06:20:08;;;;;;;10.13;3.67;;;8.70;99.90;;;;;;5086101;28;20294;-78
2020/12/21 06:22:35;;;;;;;9.13;2.73;;;8.80;99.90;;;;;;5091901;28;20290;-79
2020/12/21 06:25:01;;;;;;;10.30;3.30;;;8.80;99.90;;;;;;5083137;28;20771;-79
2020/12/21 06:27:38;;;;;;;7.40;2.80;;;8.80;99.90;;;;;;5086674;28;20218;-78
2020/12/21 06:30:06;;;;;;;6.07;2.77;;;8.80;99.90;;;;;;5091556;28;20197;-81
2020/12/21 06:32:33;;;;;;;6.13;2.77;;;8.80;99.90;;;;;;5081342;28;20196;-79
2020/12/21 06:35:02;;;;;;;9.50;2.90;;;8.80;99.90;;;;;;5092177;28;20614;-80
2020/12/21 06:37:28;;;;;;;8.27;2.83;;;9.00;99.90;;;;;;5082185;28;20737;-79
2020/12/21 06:39:59;;;;;;;7.40;2.97;;;9.10;99.90;;;;;;5091694;28;20288;-79
2020/12/21 06:42:26;;;;;;;9.03;3.43;;;9.10;99.90;;;;;;5095254;28;20286;-78
2020/12/21 06:44:54;;;;;;;10.60;2.90;;;9.00;99.90;;;;;;5095190;28;20239;-77
2020/12/21 06:47:21;;;;;;;8.43;2.57;;;9.00;99.90;;;;;;5089624;28;20710;-79
2020/12/21 06:49:48;;;;;;;6.73;2.87;;;9.10;99.90;;;;;;5095689;28;20202;-80
2020/12/21 06:52:15;;;;;;;10.70;3.00;;;9.10;99.90;;;;;;5095970;28;20201;-79
2020/12/21 06:54:43;;;;;;;10.00;2.63;;;9.30;99.90;;;;;;5096142;28;20206;-80
2020/12/21 06:57:09;;;;;;;11.27;2.77;;;9.20;99.90;;;;;;5093613;28;20552;-80
2020/12/21 06:59:36;;;;;;;10.13;2.83;;;9.30;99.90;;;;;;5096113;28;20265;-79
2020/12/21 07:02:03;;;;;;;9.20;3.13;;;9.30;99.90;;;;;;5093041;28;20205;-79
2020/12/21 07:04:30;;;;;;;8.90;2.93;;;9.30;99.90;;;;;;5081361;28;20287;-79
2020/12/21 07:06:59;;;;;;;5.93;2.30;;;9.20;99.90;;;;;;5091444;28;20221;-79
2020/12/21 07:09:28;;;;;;;8.13;2.73;;;9.20;99.90;;;;;;5093399;28;20603;-79
2020/12/21 07:11:55;;;;;;;10.20;2.93;;;9.30;99.90;;;;;;5089868;28;20602;-79
2020/12/21 07:14:23;;;;;;;5.50;2.50;;;9.40;99.90;;;;;;5092755;28;20280;-78
2020/12/21 07:16:50;;;;;;;10.03;2.63;;;9.40;99.90;;;;;;5090661;28;20205;-79
2020/12/21 07:19:20;;;;;;;7.77;2.20;;;9.40;99.90;;;;;;5090306;28;20201;-79
2020/12/21 07:21:47;;;;;;;7.57;2.40;;;9.30;99.90;;;;;;5087574;28;20199;-78
2020/12/21 07:24:13;;;;;;;9.50;2.50;;;9.30;99.90;;;;;;5093970;28;20201;-79
2020/12/21 07:26:41;;;;;;;11.03;2.10;;;9.20;99.90;;;;;;5087398;28;20306;-80
2020/12/21 07:29:07;;;;;;;6.60;2.20;;;9.30;99.90;;;;;;5092805;28;20246;-79
2020/12/21 07:31:33;;;;;;;8.97;2.23;;;9.30;99.90;;;;;;5093622;28;20282;-79
2020/12/21 07:34:01;;;;;;;11.93;3.00;;;9.30;99.90;;;;;;5093605;28;20293;-79
2020/12/21 07:36:29;;;;;;;5.40;2.37;;;9.40;99.90;;;;;;5089885;28;20231;-80
2020/12/21 07:39:05;;;;;;;13.63;2.83;;;9.30;99.90;;;;;;5080790;28;20253;-79
2020/12/21 07:41:33;;;;;;;7.93;2.03;;;9.30;99.90;;;;;;5080947;28;20207;-78
2020/12/21 07:44:03;;;;;;;6.40;2.17;;;9.30;99.90;;;;;;5082648;28;20285;-78
2020/12/21 07:46:39;;;;;;;6.23;2.23;;;9.20;99.90;;;;;;5083481;28;20202;-77
2020/12/21 07:49:07;;;;;;;5.33;2.10;;;9.20;99.90;;;;;;5081998;28;20207;-79
2020/12/21 07:51:36;;;;;;;10.93;2.07;;;9.30;99.90;;;;;;5087182;28;20598;-77
2020/12/21 07:54:03;;;;;;;7.03;2.00;;;9.30;99.90;;;;;;5093631;28;20199;-78
2020/12/21 07:56:29;;;;;;;6.43;2.07;;;9.30;99.90;;;;;;5091010;28;20201;-76
2020/12/21 07:58:55;;;;;;;7.20;1.97;;;9.40;99.90;;;;;;5094277;28;20261;-77
2020/12/21 08:01:23;;;;;;;6.23;2.20;;;9.30;99.90;;;;;;5093679;28;20205;-79
2020/12/21 08:03:52;;;;;;;7.97;1.80;;;9.30;99.90;;;;;;5093753;28;20259;-77
2020/12/21 08:06:22;;;;;;;8.17;1.90;;;9.40;99.90;;;;;;5090507;28;20202;-77
2020/12/21 08:08:50;;;;;;;8.20;2.00;;;9.30;99.90;;;;;;5090421;28;20190;-78
2020/12/21 08:11:18;;;;;;;9.43;1.63;;;9.20;99.90;;;;;;5079790;28;20220;-78
2020/12/21 08:13:48;;;;;;;10.70;1.77;;;9.20;99.90;;;;;;5086422;28;20201;-77
2020/12/21 08:16:15;;;;;;;7.77;2.10;;;9.30;99.90;;;;;;5088486;28;20212;-77
2020/12/21 08:18:47;;;;;;;5.87;1.73;;;9.20;99.90;;;;;;5092473;28;20199;-77
2020/12/21 08:21:15;;;;;;;8.50;1.93;;;9.30;99.90;;;;;;5093327;28;20283;-80
2020/12/21 08:23:42;;;;;;;8.90;2.00;;;9.30;99.90;;;;;;5092710;28;20202;-77
2020/12/21 08:26:14;;;;;;;6.38;2.22;;;9.40;99.90;;;;;;5091482;28;20466;-78
2020/12/21 08:28:41;;;;;;;6.77;2.00;;;9.40;99.90;;;;;;5093025;28;20202;-78
2020/12/21 08:31:13;;;;;;;3.57;1.43;;;9.50;99.90;;;;;;5093138;28;20294;-77
2020/12/21 08:33:55;;;;;;;5.00;2.07;;;9.50;99.90;;;;;;5092498;28;20292;-77
2020/12/21 08:36:24;;;;;;;4.47;1.50;;;9.50;99.90;;;;;;5091401;28;20206;-77
2020/12/21 08:38:51;;;;;;;5.27;1.77;;;9.40;99.90;;;;;;5084022;28;20205;-78
2020/12/21 08:41:18;;;;;;;7.20;1.70;;;9.30;99.90;;;;;;5077271;28;20211;-78
2020/12/21 08:43:45;;;;;;;4.50;1.30;;;9.40;99.90;;;;;;5087085;28;20556;-76
2020/12/21 08:46:13;;;;;;;7.20;1.70;;;9.40;99.90;;;;;;5091368;28;20996;-77
2020/12/21 08:48:42;;;;;;;4.77;1.60;;;9.40;99.90;;;;;;5090668;28;20224;-78
2020/12/21 08:51:10;;;;;;;6.63;1.63;;;9.50;99.90;;;;;;5092187;28;20204;-78
2020/12/21 08:53:36;;;;;;;5.53;1.57;;;9.40;99.90;;;;;;5093521;28;20603;-78
2020/12/21 08:56:20;;;;;;;7.90;1.57;;;9.30;99.90;;;;;;5087719;28;20285;-78
2020/12/21 08:58:47;;;;;;;5.60;1.63;;;9.40;99.90;;;;;;5082568;28;20195;-79
2020/12/21 09:01:13;;;;;;;3.67;1.30;;;9.40;99.90;;;;;;5089010;28;20779;-80
2020/12/21 09:03:39;;;;;;;6.17;1.57;;;9.40;99.90;;;;;;5086517;28;20197;-78
2020/12/21 09:06:06;;;;;;;4.73;1.67;;;9.40;99.90;;;;;;5091078;28;20205;-78
2020/12/21 09:08:33;;;;;;;3.47;1.37;;;9.40;99.90;;;;;;5084485;28;20217;-78
2020/12/21 09:10:59;;;;;;;2.83;1.20;;;9.40;99.90;;;;;;5090224;28;20683;-78
2020/12/21 09:13:26;;;;;;;6.07;1.47;;;9.40;99.90;;;;;;5091276;28;20212;-77
2020/12/21 09:15:52;;;;;;;5.00;1.30;;;9.40;99.90;;;;;;5089265;28;20251;-78
2020/12/21 09:18:19;;;;;;;4.60;1.20;;;9.40;99.90;;;;;;5090091;28;20295;-79
2020/12/21 09:20:46;;;;;;;4.77;1.50;;;9.40;99.90;;;;;;5087645;28;20288;-76
2020/12/21 09:23:12;;;;;;;4.37;1.40;;;9.60;99.90;;;;;;5091558;28;20257;-77
2020/12/21 09:25:40;;;;;;;5.17;1.20;;;9.60;99.90;;;;;;5083979;28;20197;-76
2020/12/21 09:28:06;;;;;;;4.67;1.17;;;9.50;99.90;;;;;;5090645;28;20228;-78
2020/12/21 09:30:33;;;;;;;3.33;1.00;;;9.50;99.90;;;;;;5091188;28;20285;-77
2020/12/21 09:33:00;;;;;;;5.27;1.50;;;9.60;99.90;;;;;;5088650;28;20201;-74
2020/12/21 09:35:26;;;;;;;5.10;1.20;;;9.60;99.90;;;;;;5090124;28;20196;-76
2020/12/21 09:37:53;;;;;;;4.73;1.00;;;9.60;99.90;;;;;;5087862;28;20201;-76
2020/12/21 09:40:20;;;;;;;1.73;0.90;;;9.60;99.90;;;;;;5089081;28;20611;-76
2020/12/21 09:42:47;;;;;;;3.33;1.33;;;9.50;99.90;;;;;;5086921;28;20766;-77
2020/12/21 09:45:14;;;;;;;2.90;0.80;;;9.60;99.90;;;;;;5086839;28;20232;-76
2020/12/21 09:47:40;;;;;;;3.63;1.10;;;9.50;99.90;;;;;;5086334;28;20223;-76
2020/12/21 09:50:06;;;;;;;5.87;1.07;;;9.50;99.90;;;;;;5087630;28;20226;-76
2020/12/21 09:52:33;;;;;;;2.03;0.97;;;9.40;99.90;;;;;;5086487;28;20286;-76
2020/12/21 09:54:59;;;;;;;2.20;1.07;;;9.50;99.90;;;;;;5063674;28;20202;-77
2020/12/21 09:57:25;;;;;;;3.33;0.90;;;9.40;99.90;;;;;;5081347;28;20217;-76
2020/12/21 09:59:53;;;;;;;3.90;0.90;;;9.50;99.90;;;;;;5086648;28;20213;-77
2020/12/21 10:02:19;;;;;;;3.50;1.07;;;9.50;99.90;;;;;;5090521;28;20187;-77
2020/12/21 10:04:45;;;;;;;3.70;1.00;;;9.60;99.90;;;;;;5089798;28;20262;-77
2020/12/21 10:07:12;;;;;;;4.93;1.00;;;9.60;99.90;;;;;;5089801;28;20226;-79
2020/12/21 10:09:38;;;;;;;1.80;0.80;;;9.60;99.90;;;;;;5086337;28;20275;-76
2020/12/21 10:12:05;;;;;;;4.90;1.03;;;9.50;99.90;;;;;;5086196;28;20224;-78
2020/12/21 10:18:11;;;;;;;4.27;0.83;;;9.40;99.90;;;;;;5070155;28;20201;-75
2020/12/21 10:20:38;;;;;;;2.63;0.67;;;9.30;99.90;;;;;;5069085;28;20276;-75
2020/12/21 10:23:04;;;;;;;2.63;1.00;;;9.30;99.90;;;;;;5070511;28;20330;-75
2020/12/21 10:25:30;;;;;;;3.33;0.70;;;9.20;99.90;;;;;;5063317;28;20212;-75
2020/12/21 10:27:57;;;;;;;2.83;0.60;;;9.30;99.90;;;;;;5067208;28;20219;-76
2020/12/21 10:30:23;;;;;;;4.13;0.80;;;9.30;99.90;;;;;;5070072;28;20197;-76
2020/12/21 10:32:49;;;;;;;4.07;0.80;;;9.40;99.90;;;;;;5071309;28;20217;-75
2020/12/21 10:35:17;;;;;;;2.67;1.20;;;9.40;99.90;;;;;;5053777;28;20839;-76
2020/12/21 10:37:43;;;;;;;3.70;0.70;;;9.30;99.90;;;;;;5051822;28;20557;-76
2020/12/21 10:40:10;;;;;;;2.07;0.77;;;9.30;99.90;;;;;;5062783;28;20200;-76
2020/12/21 10:42:36;;;;;;;3.23;0.50;;;9.20;99.90;;;;;;5056686;28;20217;-76
2020/12/21 10:45:02;;;;;;;1.70;0.50;;;9.10;99.90;;;;;;5066771;28;20283;-76
2020/12/21 10:47:30;;;;;;;1.13;0.50;;;9.10;99.90;;;;;;5065503;28;20680;-76
2020/12/21 10:49:56;;;;;;;4.43;0.67;;;9.10;99.90;;;;;;5051065;28;20232;-75
2020/12/21 10:52:24;;;;;;;1.77;0.60;;;9.20;99.90;;;;;;5064292;28;20224;-77
2020/12/21 10:54:50;;;;;;;3.27;0.67;;;9.20;99.90;;;;;;5055357;28;20202;-78
2020/12/21 10:57:17;;;;;;;1.80;0.70;;;9.30;99.90;;;;;;5056001;28;20331;-79
2020/12/21 10:59:43;;;;;;;1.50;0.60;;;9.20;99.90;;;;;;5068095;28;20213;-78
2020/12/21 11:02:09;;;;;;;2.87;0.70;;;9.20;99.90;;;;;;5062454;28;20196;-79
2020/12/21 11:04:38;;;;;;;1.33;0.47;;;9.20;99.90;;;;;;5062759;28;20286;-79
2020/12/21 11:07:04;;;;;;;1.97;0.60;;;9.30;99.90;;;;;;5061795;28;20218;-78
2020/12/21 11:09:31;;;;;;;1.43;0.47;;;9.40;99.90;;;;;;5054496;28;20220;-78
2020/12/21 11:11:58;;;;;;;1.60;0.50;;;9.40;99.90;;;;;;5057106;28;20266;-79
2020/12/21 11:14:25;;;;;;;1.87;0.50;;;9.40;99.90;;;;;;5062236;28;20231;-78
2020/12/21 11:16:52;;;;;;;3.07;0.80;;;9.40;99.90;;;;;;5065258;28;20255;-78
2020/12/21 11:19:43;;;;;;;1.27;0.50;;;9.40;99.90;;;;;;5065880;28;20229;-79
2020/12/21 11:22:10;;;;;;;1.30;0.53;;;9.40;99.90;;;;;;5046043;28;20250;-78
2020/12/21 11:24:37;;;;;;;2.07;0.60;;;9.30;99.90;;;;;;5058435;28;20207;-78
2020/12/21 11:27:03;;;;;;;2.10;0.77;;;9.40;99.90;;;;;;5062022;28;20226;-79
2020/12/21 11:29:30;;;;;;;2.37;0.73;;;9.40;99.90;;;;;;5067992;28;20203;-78
2020/12/21 11:31:56;;;;;;;2.83;0.50;;;9.60;99.90;;;;;;5066198;28;20199;-78
2020/12/21 11:34:22;;;;;;;1.40;0.53;;;9.60;99.90;;;;;;5065499;28;20292;-78
2020/12/21 11:36:49;;;;;;;2.67;0.60;;;9.60;99.90;;;;;;5069965;28;20194;-79
2020/12/21 11:39:16;;;;;;;2.67;0.70;;;9.60;99.90;;;;;;5073772;28;20239;-79
2020/12/21 11:41:43;;;;;;;2.40;0.43;;;9.50;99.90;;;;;;5059645;28;20550;-79
2020/12/21 11:44:09;;;;;;;1.67;0.43;;;9.50;99.90;;;;;;5059096;28;20591;-79
2020/12/21 11:46:37;;;;;;;0.77;0.43;;;9.60;99.90;;;;;;5060846;28;20680;-79
2020/12/21 11:49:06;;;;;;;1.03;0.57;;;9.60;99.90;;;;;;5063889;28;20212;-79
2020/12/21 11:51:33;;;;;;;1.37;0.63;;;9.60;99.90;;;;;;5060939;28;20636;-80
2020/12/21 11:53:59;;;;;;;2.83;0.60;;;9.70;99.90;;;;;;5059353;28;20197;-79
2020/12/21 11:56:25;;;;;;;2.93;0.57;;;9.70;99.90;;;;;;5065786;28;20290;-79
2020/12/21 11:58:54;;;;;;;2.13;0.50;;;9.60;99.90;;;;;;5067123;28;20282;-79
2020/12/21 12:01:20;;;;;;;2.47;0.80;;;9.50;99.90;;;;;;5065002;28;20673;-79
2020/12/21 12:03:47;;;;;;;2.07;0.70;;;9.50;99.90;;;;;;5064607;28;20207;-79
2020/12/21 12:06:13;;;;;;;1.13;0.50;;;9.40;99.90;;;;;;5069454;28;20254;-80
2020/12/21 12:08:40;;;;;;;3.93;0.40;;;9.40;99.90;;;;;;5065485;28;20296;-80
2020/12/21 12:11:08;;;;;;;2.10;0.70;;;9.30;99.90;;;;;;5067641;28;20209;-79
2020/12/21 12:13:34;;;;;;;2.37;0.80;;;9.40;99.90;;;;;;5067634;28;20214;-80
2020/12/21 12:16:01;;;;;;;1.30;0.50;;;9.40;99.90;;;;;;5068776;28;20207;-81
2020/12/21 12:18:28;;;;;;;2.23;0.50;;;9.40;99.90;;;;;;5065120;28;20206;-80
2020/12/21 12:20:54;;;;;;;2.17;0.80;;;9.40;99.90;;;;;;5063184;28;20297;-80
2020/12/21 12:23:21;;;;;;;1.70;0.50;;;9.40;99.90;;;;;;5064179;28;20198;-80
2020/12/21 12:25:47;;;;;;;2.13;0.60;;;9.40;99.90;;;;;;5063219;28;20263;-80
2020/12/21 12:28:13;;;;;;;3.63;0.93;;;9.40;99.90;;;;;;5063559;28;20223;-80
2020/12/21 12:30:40;;;;;;;3.90;0.60;;;9.40;99.90;;;;;;5064884;28;20210;-79
2020/12/21 12:33:07;;;;;;;2.10;0.67;;;9.40;99.90;;;;;;5062051;28;20209;-79
2020/12/21 12:35:33;;;;;;;2.00;0.70;;;9.30;99.90;;;;;;5055571;28;20222;-80
2020/12/21 12:37:59;;;;;;;5.67;1.53;;;9.40;99.90;;;;;;5065172;28;20209;-79
2020/12/21 12:40:26;;;;;;;3.83;0.97;;;9.40;99.90;;;;;;5062340;28;20537;-79
2020/12/21 12:42:52;;;;;;;3.27;0.90;;;9.50;99.90;;;;;;5064039;28;20213;-80
2020/12/21 12:45:19;;;;;;;2.53;1.00;;;9.50;99.90;;;;;;5057967;28;20242;-79
2020/12/21 12:47:45;;;;;;;3.33;0.70;;;9.50;99.90;;;;;;5058426;28;20330;-79
2020/12/21 12:50:12;;;;;;;1.70;0.50;;;9.40;99.90;;;;;;5067526;28;20773;-79
2020/12/21 12:52:38;;;;;;;1.87;0.63;;;9.30;99.90;;;;;;5072323;28;20229;-79
2020/12/21 12:55:05;;;;;;;1.30;0.50;;;9.30;99.90;;;;;;5068668;28;20296;-79
2020/12/21 12:57:32;;;;;;;3.60;0.80;;;9.40;99.90;;;;;;5069123;28;20209;-79